Time,TemperatureF,DewpointF,PressureIn,WindDirection,WindDirectionDegrees,WindSpeedMPH,WindSpeedGustMPH,Humidity,HourlyPrecipIn,Conditions,Clouds,dailyrainin,SoftwareType,DateUTC
2013-01-27 00:03:00,23.2,6.4,30.25,South,180,7.1,8.7,48,0.00,CLR,,0.00,WeatherDisplay:10.37,2013-01-27 06:03:00,
2013-01-27 00:08:00,23.2,6.4,30.25,South,180,5.6,8.1,48,0.00,CLR,,0.00,WeatherDisplay:10.37,2013-01-27 06:08:00,
2013-01-27 00:13:00,23.4,6.5,30.25,SSW,202,6.7,8.1,48,0.00,CLR,,0.00,WeatherDisplay:10.37,2013-01-27 06:13:00,
2013-01-27 00:18:00,23.4,6.5,30.25,South,180,7.1,10.4,48,0.00,CLR,,0.00,WeatherDisplay:10.37,2013-01-27 06:18:00,
2013-01-27 00:23:00,23.4,6.5,30.25,South,180,4.7,6.9,48,0.00,CLR,,0.00,WeatherDisplay:10.37,2013-01-27 06:23:00,
2013-01-27 00:28:00,23.5,6.7,30.25,SSE,158,6.4,10.5,48,0.00,CLR,,0.00,WeatherDisplay:10.37,2013-01-27 06:28:00,
2013-01-27 00:33:00,23.5,6.7,30.25,SSE,158,5.4,13.8,48,0.00,CLR,,0.00,WeatherDisplay:10.37,2013-01-27 06:33:00,
2013-01-27 00:38:00,23.5,6.7,30.25,SSW,202,4.9,5.9,48,0.00,CLR,,0.00,WeatherDisplay:10.37,2013-01-27 06:38:00,
2013-01-27 00:43:00,23.5,6.7,30.25,South,180,5.6,8.1,48,0.00,CLR,,0.00,WeatherDisplay:10.37,2013-01-27 06:43:00,
2013-01-27 00:48:00,23.5,7.2,30.25,South,180,4.5,6.9,49,0.00,CLR,,0.00,WeatherDisplay:10.37,2013-01-27 06:48:00,
2013-01-27 00:53:00,23.5,7.2,30.25,SSW,202,6.4,13.8,49,0.00,CLR,,0.00,WeatherDisplay:10.37,2013-01-27 06:53:00,
2013-01-27 00:58:00,23.5,7.2,30.25,South,180,3.3,5.8,49,0.00,CLR,,0.00,WeatherDisplay:10.37,2013-01-27 06:58:00,
2013-01-27 01:03:00,23.7,7.3,30.25,SSE,158,6.9,6.9,49,0.00,CLR,,0.00,WeatherDisplay:10.37,2013-01-27 07:03:00,
2013-01-27 01:08:00,23.7,7.3,30.25,SSE,158,6.7,8.1,49,0.00,CLR,,0.00,WeatherDisplay:10.37,2013-01-27 07:08:00,
2013-01-27 01:13:00,23.7,7.3,30.25,SSE,158,4.9,8.5,49,0.00,CLR,,0.00,WeatherDisplay:10.37,2013-01-27 07:13:00,
2013-01-27 01:18:00,23.7,7.3,30.25,South,180,4.9,6.9,49,0.00,CLR,,0.00,WeatherDisplay:10.37,2013-01-27 07:18:00,
2013-01-27 01:23:00,23.7,7.3,30.25,WSW,248,6.2,8.1,49,0.00,CLR,,0.00,WeatherDisplay:10.37,2013-01-27 07:23:00,
2013-01-27 01:28:00,23.7,7.3,30.25,WSW,248,6.7,9.2,49,0.00,CLR,,0.00,WeatherDisplay:10.37,2013-01-27 07:28:00,
2013-01-27 01:33:00,23.9,7.5,30.25,ESE,112,4.7,5.8,49,0.00,CLR,,0.00,WeatherDisplay:10.37,2013-01-27 07:33:00,
2013-01-27 01:38:00,23.9,7.5,30.25,South,180,3.1,3.8,49,0.00,CLR,,0.00,WeatherDisplay:10.37,2013-01-27 07:38:00,
2013-01-27 01:43:00,23.9,7.5,30.25,South,180,3.3,5.8,49,0.00,CLR,,0.00,WeatherDisplay:10.37,2013-01-27 07:43:00,
2013-01-27 01:48:00,23.9,7.5,30.25,SSE,158,3.3,6.2,49,0.00,CLR,,0.00,WeatherDisplay:10.37,2013-01-27 07:48:00,
2013-01-27 01:53:00,24.1,8.1,30.25,South,180,2.9,4.9,50,0.00,CLR,,0.00,WeatherDisplay:10.37,2013-01-27 07:53:00,
2013-01-27 01:58:00,24.1,7.7,30.25,SSE,158,5.9,8.1,49,0.00,CLR,,0.00,WeatherDisplay:10.37,2013-01-27 07:58:00,
2013-01-27 02:03:00,24.1,7.7,30.25,SSE,158,6.0,9.2,49,0.00,CLR,,0.00,WeatherDisplay:10.37,2013-01-27 08:03:00,
2013-01-27 02:08:00,24.1,7.7,30.25,SSE,158,6.7,8.1,49,0.00,CLR,,0.00,WeatherDisplay:10.37,2013-01-27 08:08:00,
2013-01-27 02:13:00,24.3,7.8,30.25,South,180,4.5,8.1,49,0.00,CLR,,0.00,WeatherDisplay:10.37,2013-01-27 08:13:00,
2013-01-27 02:18:00,24.1,8.1,30.25,ESE,112,5.4,6.9,50,0.00,CLR,,0.00,WeatherDisplay:10.37,2013-01-27 08:18:00,
2013-01-27 02:23:00,24.1,8.1,30.25,SSE,158,7.1,8.1,50,0.00,CLR,,0.00,WeatherDisplay:10.37,2013-01-27 08:23:00,
2013-01-27 02:28:00,24.3,8.3,30.25,SSE,158,4.7,8.5,50,0.00,CLR,,0.00,WeatherDisplay:10.37,2013-01-27 08:28:00,
2013-01-27 02:33:00,24.3,8.3,30.25,SE,135,5.4,11.5,50,0.00,CLR,,0.00,WeatherDisplay:10.37,2013-01-27 08:33:00,
2013-01-27 02:38:00,24.3,8.3,30.25,South,180,4.3,5.8,50,0.00,CLR,,0.00,WeatherDisplay:10.37,2013-01-27 08:38:00,
2013-01-27 02:43:00,24.3,8.3,30.22,SSE,158,6.2,8.7,50,0.00,CLR,,0.00,WeatherDisplay:10.37,2013-01-27 08:43:00,
2013-01-27 02:48:00,24.3,8.3,30.22,SSE,158,6.0,9.2,50,0.00,CLR,,0.00,WeatherDisplay:10.37,2013-01-27 08:48:00,
2013-01-27 02:53:00,24.3,8.3,30.22,South,180,8.1,8.1,50,0.00,CLR,,0.00,WeatherDisplay:10.37,2013-01-27 08:53:00,
2013-01-27 02:58:00,24.3,8.3,30.22,South,180,5.4,6.9,50,0.00,CLR,,0.00,WeatherDisplay:10.37,2013-01-27 08:58:00,
2013-01-27 03:03:00,24.3,8.3,30.22,SSW,202,5.4,6.9,50,0.00,CLR,,0.00,WeatherDisplay:10.37,2013-01-27 09:03:00,
2013-01-27 03:08:00,24.3,8.3,30.22,SSE,158,6.7,9.2,50,0.00,CLR,,0.00,WeatherDisplay:10.37,2013-01-27 09:08:00,
2013-01-27 03:13:00,24.3,8.3,30.19,SSE,158,4.9,10.4,50,0.00,CLR,,0.00,WeatherDisplay:10.37,2013-01-27 09:13:00,
2013-01-27 03:18:00,24.3,8.3,30.19,SSE,158,3.8,5.8,50,0.00,CLR,,0.00,WeatherDisplay:10.37,2013-01-27 09:18:00,
2013-01-27 03:24:00,24.1,8.1,30.19,South,180,6.0,12.1,50,0.00,CLR,,0.00,WeatherDisplay:10.37,2013-01-27 09:24:00,
2013-01-27 03:29:00,24.3,8.3,30.19,South,180,7.1,12.7,50,0.00,CLR,,0.00,WeatherDisplay:10.37,2013-01-27 09:29:00,
2013-01-27 03:34:00,24.3,8.3,30.19,SSE,158,8.7,12.7,50,0.00,CLR,,0.00,WeatherDisplay:10.37,2013-01-27 09:34:00,
2013-01-27 03:39:00,24.4,8.4,30.19,SSE,158,7.8,10.4,50,0.00,CLR,,0.00,WeatherDisplay:10.37,2013-01-27 09:39:00,
2013-01-27 03:44:00,24.3,8.3,30.16,SE,135,8.1,11.5,50,0.00,CLR,,0.00,WeatherDisplay:10.37,2013-01-27 09:44:00,
2013-01-27 03:49:00,24.4,8.9,30.16,SSE,158,5.9,5.9,51,0.00,CLR,,0.00,WeatherDisplay:10.37,2013-01-27 09:49:00,
2013-01-27 03:54:00,24.4,8.9,30.16,SSE,158,6.0,11.5,51,0.00,CLR,,0.00,WeatherDisplay:10.37,2013-01-27 09:54:00,
2013-01-27 03:59:00,24.4,8.9,30.19,SE,135,5.4,6.9,51,0.00,CLR,,0.00,WeatherDisplay:10.37,2013-01-27 09:59:00,
2013-01-27 04:04:00,24.4,8.9,30.19,ESE,112,2.0,5.8,51,0.00,CLR,,0.00,WeatherDisplay:10.37,2013-01-27 10:04:00,
2013-01-27 04:09:00,24.4,8.9,30.19,SSE,158,4.0,5.8,51,0.00,CLR,,0.00,WeatherDisplay:10.37,2013-01-27 10:09:00,
2013-01-27 04:14:00,24.4,8.9,30.19,WSW,248,6.0,9.2,51,0.00,CLR,,0.00,WeatherDisplay:10.37,2013-01-27 10:14:00,
2013-01-27 04:19:00,24.4,8.9,30.19,SSE,158,4.9,6.9,51,0.00,CLR,,0.00,WeatherDisplay:10.37,2013-01-27 10:19:00,
2013-01-27 04:24:00,24.4,8.9,30.19,SSE,158,6.4,8.1,51,0.00,CLR,,0.00,WeatherDisplay:10.37,2013-01-27 10:24:00,
2013-01-27 04:29:00,24.4,8.9,30.16,ESE,112,4.5,6.9,51,0.00,CLR,,0.00,WeatherDisplay:10.37,2013-01-27 10:29:00,
2013-01-27 04:34:00,24.4,9.3,30.16,South,180,4.9,7.8,52,0.00,CLR,,0.00,WeatherDisplay:10.37,2013-01-27 10:34:00,
2013-01-27 04:39:00,24.4,8.9,30.16,SSE,158,3.3,5.8,51,0.00,CLR,,0.00,WeatherDisplay:10.37,2013-01-27 10:39:00,
2013-01-27 04:44:00,24.4,8.9,30.16,SE,135,6.2,9.2,51,0.00,CLR,,0.00,WeatherDisplay:10.37,2013-01-27 10:44:00,
2013-01-27 04:49:00,24.6,9.0,30.16,SE,135,5.6,8.1,51,0.00,CLR,,0.00,WeatherDisplay:10.37,2013-01-27 10:49:00,
2013-01-27 04:54:00,24.6,9.5,30.16,South,180,6.4,8.1,52,0.00,CLR,,0.00,WeatherDisplay:10.37,2013-01-27 10:54:00,
2013-01-27 04:59:00,24.6,9.0,30.16,South,180,5.6,9.2,51,0.00,CLR,,0.00,WeatherDisplay:10.37,2013-01-27 10:59:00,
2013-01-27 05:04:00,24.6,9.5,30.16,SSE,158,5.4,8.1,52,0.00,CLR,,0.00,WeatherDisplay:10.37,2013-01-27 11:04:00,
2013-01-27 05:09:00,24.6,9.5,30.16,SSE,158,3.6,3.6,52,0.00,CLR,,0.00,WeatherDisplay:10.37,2013-01-27 11:09:00,
2013-01-27 05:14:00,24.6,9.5,30.19,South,180,6.2,6.2,52,0.00,CLR,,0.00,WeatherDisplay:10.37,2013-01-27 11:14:00,
2013-01-27 05:19:00,24.6,9.5,30.19,SSE,158,6.4,10.4,52,0.00,CLR,,0.00,WeatherDisplay:10.37,2013-01-27 11:19:00,
2013-01-27 05:24:00,24.6,9.5,30.19,ESE,112,3.6,5.8,52,0.00,CLR,,0.00,WeatherDisplay:10.37,2013-01-27 11:24:00,
2013-01-27 05:29:00,24.6,9.5,30.16,South,180,4.9,7.6,52,0.00,CLR,,0.00,WeatherDisplay:10.37,2013-01-27 11:29:00,
2013-01-27 05:34:00,24.6,9.0,30.16,SE,135,5.6,5.8,51,0.00,CLR,,0.00,WeatherDisplay:10.37,2013-01-27 11:34:00,
2013-01-27 05:39:00,24.6,9.0,30.16,SSE,158,6.7,8.1,51,0.00,CLR,,0.00,WeatherDisplay:10.37,2013-01-27 11:39:00,
2013-01-27 05:44:00,24.6,9.0,30.16,SSE,158,6.2,8.1,51,0.00,CLR,,0.00,WeatherDisplay:10.37,2013-01-27 11:44:00,
2013-01-27 05:49:00,24.6,9.0,30.16,South,180,4.9,7.6,51,0.00,CLR,,0.00,WeatherDisplay:10.37,2013-01-27 11:49:00,
2013-01-27 05:54:00,24.6,9.0,30.16,South,180,4.5,6.9,51,0.00,CLR,,0.00,WeatherDisplay:10.37,2013-01-27 11:54:00,
2013-01-27 05:59:00,24.8,9.2,30.16,SSW,202,7.1,10.7,51,0.00,CLR,,0.00,WeatherDisplay:10.37,2013-01-27 11:59:00,
2013-01-27 06:04:00,24.8,9.6,30.16,SSW,202,4.0,5.8,52,0.00,CLR,,0.00,WeatherDisplay:10.37,2013-01-27 12:04:00,
2013-01-27 06:09:00,24.8,9.2,30.16,South,180,4.9,8.1,51,0.00,CLR,,0.00,WeatherDisplay:10.37,2013-01-27 12:09:00,
2013-01-27 06:14:00,24.8,9.6,30.16,South,180,4.3,4.6,52,0.00,CLR,,0.00,WeatherDisplay:10.37,2013-01-27 12:14:00,
2013-01-27 06:19:00,25.0,9.4,30.16,SSE,158,5.9,10.4,51,0.00,CLR,,0.00,WeatherDisplay:10.37,2013-01-27 12:19:00,
2013-01-27 06:24:00,25.0,9.4,30.16,SE,135,5.9,8.1,51,0.00,CLR,,0.00,WeatherDisplay:10.37,2013-01-27 12:24:00,
2013-01-27 06:29:00,25.0,9.4,30.16,SE,135,5.9,8.1,51,0.00,CLR,,0.00,WeatherDisplay:10.37,2013-01-27 12:29:00,
2013-01-27 06:34:00,25.0,9.4,30.16,South,180,2.6,2.6,51,0.00,CLR,,0.00,WeatherDisplay:10.37,2013-01-27 12:34:00,
2013-01-27 06:39:00,25.0,9.8,30.16,SSE,158,3.6,3.6,52,0.00,CLR,,0.00,WeatherDisplay:10.37,2013-01-27 12:39:00,
2013-01-27 06:44:00,25.2,9.5,30.16,SE,135,5.9,8.1,51,0.00,CLR,,0.00,WeatherDisplay:10.37,2013-01-27 12:44:00,
2013-01-27 06:49:00,25.2,9.5,30.16,SSE,158,2.6,4.6,51,0.00,CLR,,0.00,WeatherDisplay:10.37,2013-01-27 12:49:00,
2013-01-27 06:54:00,25.3,9.7,30.16,SSE,158,5.4,5.8,51,0.00,CLR,,0.00,WeatherDisplay:10.37,2013-01-27 12:54:00,
2013-01-27 06:59:00,25.3,9.7,30.16,South,180,5.6,6.0,51,0.00,CLR,,0.00,WeatherDisplay:10.37,2013-01-27 12:59:00,
2013-01-27 07:04:00,25.5,9.9,30.16,SSE,158,5.9,7.4,51,0.00,CLR,,0.00,WeatherDisplay:10.37,2013-01-27 13:04:00,
2013-01-27 07:09:00,25.5,9.9,30.16,SSE,158,4.0,6.9,51,0.00,CLR,,0.00,WeatherDisplay:10.37,2013-01-27 13:09:00,
2013-01-27 07:14:00,25.5,9.9,30.16,South,180,4.5,7.4,51,0.00,CLR,,0.00,WeatherDisplay:10.37,2013-01-27 13:14:00,
2013-01-27 07:19:00,25.7,10.0,30.16,SSE,158,6.2,6.9,51,0.00,CLR,,0.00,WeatherDisplay:10.37,2013-01-27 13:19:00,
2013-01-27 07:24:00,25.7,10.0,30.16,SSE,158,3.6,5.8,51,0.00,CLR,,0.00,WeatherDisplay:10.37,2013-01-27 13:24:00,
2013-01-27 07:29:00,25.7,10.0,30.16,SSE,158,1.6,4.6,51,0.00,CLR,,0.00,WeatherDisplay:10.37,2013-01-27 13:29:00,
2013-01-27 07:34:00,25.7,10.0,30.16,SSW,202,3.6,3.6,51,0.00,CLR,,0.00,WeatherDisplay:10.37,2013-01-27 13:34:00,
2013-01-27 07:39:00,25.9,10.6,30.16,SSE,158,6.0,8.1,52,0.00,CLR,,0.00,WeatherDisplay:10.37,2013-01-27 13:39:00,
2013-01-27 07:44:00,25.9,10.2,30.16,SSW,202,4.9,9.2,51,0.00,CLR,,0.00,WeatherDisplay:10.37,2013-01-27 13:44:00,
2013-01-27 07:49:00,26.1,10.4,30.16,SSE,158,4.0,5.8,51,0.00,CLR,,0.00,WeatherDisplay:10.37,2013-01-27 13:49:00,
2013-01-27 07:54:00,26.1,10.4,30.16,SE,135,3.1,3.8,51,0.00,CLR,,0.00,WeatherDisplay:10.37,2013-01-27 13:54:00,
2013-01-27 07:59:00,26.1,10.8,30.16,ESE,112,3.3,5.8,52,0.00,CLR,,0.00,WeatherDisplay:10.37,2013-01-27 13:59:00,
2013-01-27 08:04:00,26.2,11.0,30.16,South,180,2.2,4.6,52,0.00,CLR,,0.00,WeatherDisplay:10.37,2013-01-27 14:04:00,
2013-01-27 08:09:00,26.2,10.5,30.16,SE,135,4.7,8.1,51,0.00,CLR,,0.00,WeatherDisplay:10.37,2013-01-27 14:09:00,
2013-01-27 08:14:00,26.4,10.7,30.16,South,180,2.9,3.5,51,0.00,CLR,,0.00,WeatherDisplay:10.37,2013-01-27 14:14:00,
2013-01-27 08:19:00,26.6,10.9,30.16,SE,135,3.3,4.6,51,0.00,CLR,,0.00,WeatherDisplay:10.37,2013-01-27 14:19:00,
2013-01-27 08:24:00,26.6,10.9,30.16,ESE,112,0.9,3.5,51,0.00,CLR,,0.00,WeatherDisplay:10.37,2013-01-27 14:24:00,
2013-01-27 08:29:00,26.8,11.0,30.16,SSE,158,4.5,10.4,51,0.00,CLR,,0.00,WeatherDisplay:10.37,2013-01-27 14:29:00,
2013-01-27 08:34:00,26.8,11.0,30.16,SSE,158,7.1,9.7,51,0.00,CLR,,0.00,WeatherDisplay:10.37,2013-01-27 14:34:00,
2013-01-27 08:39:00,27.0,11.2,30.16,South,180,4.9,5.8,51,0.00,CLR,,0.00,WeatherDisplay:10.37,2013-01-27 14:39:00,
2013-01-27 08:44:00,27.0,11.2,30.16,ESE,112,4.3,5.8,51,0.00,CLR,,0.00,WeatherDisplay:10.37,2013-01-27 14:44:00,
2013-01-27 08:49:00,27.0,11.2,30.16,South,180,7.6,11.5,51,0.00,CLR,,0.00,WeatherDisplay:10.37,2013-01-27 14:49:00,
2013-01-27 08:54:00,27.1,11.4,30.16,West,270,4.9,8.1,51,0.00,CLR,,0.00,WeatherDisplay:10.37,2013-01-27 14:54:00,
2013-01-27 08:59:00,27.3,11.5,30.16,SE,135,3.1,5.8,51,0.00,CLR,,0.00,WeatherDisplay:10.37,2013-01-27 14:59:00,
2013-01-27 09:04:00,27.3,11.5,30.16,SSE,158,6.9,9.2,51,0.00,CLR,,0.00,WeatherDisplay:10.37,2013-01-27 15:04:00,
2013-01-27 09:09:00,27.5,11.3,30.16,SSE,158,3.8,8.1,50,0.00,CLR,,0.00,WeatherDisplay:10.37,2013-01-27 15:09:00,
2013-01-27 09:14:00,27.7,11.9,30.13,SE,135,6.2,8.1,51,0.00,CLR,,0.00,WeatherDisplay:10.37,2013-01-27 15:14:00,
2013-01-27 09:19:00,27.9,12.1,30.13,SE,135,4.7,9.0,51,0.00,CLR,,0.00,WeatherDisplay:10.37,2013-01-27 15:19:00,
2013-01-27 09:24:00,27.9,12.1,30.13,WNW,292,5.9,9.2,51,0.00,CLR,,0.00,WeatherDisplay:10.37,2013-01-27 15:24:00,
2013-01-27 09:29:00,28.0,12.2,30.13,ENE,68,4.9,6.9,51,0.00,CLR,,0.00,WeatherDisplay:10.37,2013-01-27 15:29:00,
2013-01-27 09:34:00,28.2,12.4,30.13,SSW,202,4.7,6.9,51,0.00,CLR,,0.00,WeatherDisplay:10.37,2013-01-27 15:34:00,
2013-01-27 09:39:00,28.2,12.4,30.13,SSW,202,8.1,10.7,51,0.00,CLR,,0.00,WeatherDisplay:10.37,2013-01-27 15:39:00,
2013-01-27 09:44:00,28.4,12.6,30.13,South,180,4.3,5.8,51,0.00,CLR,,0.00,WeatherDisplay:10.37,2013-01-27 15:44:00,
2013-01-27 09:49:00,28.6,12.3,30.13,SSE,158,4.9,11.5,50,0.00,CLR,,0.00,WeatherDisplay:10.37,2013-01-27 15:49:00,
2013-01-27 09:54:00,28.6,12.3,30.13,WSW,248,4.5,8.1,50,0.00,CLR,,0.00,WeatherDisplay:10.37,2013-01-27 15:54:00,
2013-01-27 09:59:00,28.8,12.4,30.13,SSE,158,4.3,10.4,50,0.00,CLR,,0.00,WeatherDisplay:10.37,2013-01-27 15:59:00,
2013-01-27 10:04:00,28.9,12.6,30.13,South,180,7.1,11.5,50,0.00,CLR,,0.00,WeatherDisplay:10.37,2013-01-27 16:04:00,
2013-01-27 10:09:00,28.9,12.6,30.13,SSE,158,4.3,8.1,50,0.00,CLR,,0.00,WeatherDisplay:10.37,2013-01-27 16:09:00,
2013-01-27 10:14:00,29.3,12.9,30.13,SSE,158,4.0,6.9,50,0.00,CLR,,0.00,WeatherDisplay:10.37,2013-01-27 16:14:00,
2013-01-27 10:19:00,29.5,13.1,30.13,SE,135,5.4,6.0,50,0.00,CLR,,0.00,WeatherDisplay:10.37,2013-01-27 16:19:00,
2013-01-27 10:24:00,29.3,12.9,30.13,SSE,158,6.0,6.9,50,0.00,CLR,,0.00,WeatherDisplay:10.37,2013-01-27 16:24:00,
2013-01-27 10:29:00,29.1,12.8,30.13,South,180,8.5,13.8,50,0.00,CLR,,0.00,WeatherDisplay:10.37,2013-01-27 16:29:00,
2013-01-27 10:34:00,29.1,13.2,30.13,South,180,6.2,12.8,51,0.00,CLR,,0.00,WeatherDisplay:10.37,2013-01-27 16:34:00,
2013-01-27 10:39:00,29.1,13.2,30.13,SSW,202,7.4,9.8,51,0.00,CLR,,0.00,WeatherDisplay:10.37,2013-01-27 16:39:00,
2013-01-27 10:44:00,29.1,13.7,30.13,SSE,158,7.6,10.4,52,0.00,CLR,,0.00,WeatherDisplay:10.37,2013-01-27 16:44:00,
2013-01-27 10:49:00,29.1,13.7,30.13,SE,135,7.4,14.5,52,0.00,CLR,,0.00,WeatherDisplay:10.37,2013-01-27 16:49:00,
2013-01-27 10:54:00,29.1,14.1,30.13,SSE,158,9.0,16.1,53,0.00,CLR,,0.00,WeatherDisplay:10.37,2013-01-27 16:54:00,
2013-01-27 10:59:00,29.1,14.1,30.13,South,180,7.1,11.5,53,0.00,CLR,,0.00,WeatherDisplay:10.37,2013-01-27 16:59:00,
2013-01-27 11:04:00,29.3,15.1,30.13,SSE,158,9.8,15.0,55,0.00,CLR,,0.00,WeatherDisplay:10.37,2013-01-27 17:04:00,
2013-01-27 11:09:00,29.3,15.5,30.13,SSE,158,8.7,13.8,56,0.00,CLR,,0.00,WeatherDisplay:10.37,2013-01-27 17:09:00,
2013-01-27 11:14:00,29.5,16.1,30.13,SSE,158,2.6,3.5,57,0.00,CLR,,0.00,WeatherDisplay:10.37,2013-01-27 17:14:00,
2013-01-27 11:19:00,29.5,16.1,30.13,SSE,158,3.6,5.8,57,0.00,CLR,,0.00,WeatherDisplay:10.37,2013-01-27 17:19:00,
2013-01-27 11:24:00,29.5,16.1,30.13,SSE,158,4.3,5.8,57,0.00,CLR,,0.00,WeatherDisplay:10.37,2013-01-27 17:24:00,
2013-01-27 11:29:00,29.5,16.1,30.10,South,180,7.4,10.4,57,0.00,CLR,,0.00,WeatherDisplay:10.37,2013-01-27 17:29:00,
2013-01-27 11:34:00,29.5,16.5,30.10,ESE,112,5.4,8.1,58,0.00,CLR,,0.00,WeatherDisplay:10.37,2013-01-27 17:34:00,
2013-01-27 11:39:00,29.7,17.1,30.10,SSE,158,5.6,8.1,59,0.00,CLR,,0.00,WeatherDisplay:10.37,2013-01-27 17:39:00,
2013-01-27 11:44:00,29.8,17.6,30.07,SSE,158,2.4,3.8,60,0.00,CLR,,0.00,WeatherDisplay:10.37,2013-01-27 17:44:00,
2013-01-27 11:49:00,29.7,17.8,30.07,SE,135,7.8,11.5,61,0.00,CLR,,0.00,WeatherDisplay:10.37,2013-01-27 17:49:00,
2013-01-27 11:54:00,29.8,18.8,30.07,SSE,158,4.7,5.8,63,0.00,CLR,,0.00,WeatherDisplay:10.37,2013-01-27 17:54:00,
2013-01-27 11:59:00,29.7,18.6,30.04,SSE,158,7.8,10.2,63,0.00,CLR,,0.00,WeatherDisplay:10.37,2013-01-27 17:59:00,
2013-01-27 12:04:00,29.8,19.5,30.04,ESE,112,4.0,8.7,65,0.00,CLR,,0.00,WeatherDisplay:10.37,2013-01-27 18:04:00,
2013-01-27 12:09:00,29.8,19.9,30.04,ESE,112,5.9,6.2,66,0.00,CLR,,0.00,WeatherDisplay:10.37,2013-01-27 18:09:00,
2013-01-27 12:14:00,29.8,20.6,30.07,South,180,5.9,8.1,68,0.00,CLR,,0.00,WeatherDisplay:10.37,2013-01-27 18:14:00,
2013-01-27 12:19:00,29.7,20.7,30.07,SSE,158,3.8,8.7,69,0.00,CLR,,0.00,WeatherDisplay:10.37,2013-01-27 18:19:00,
2013-01-27 12:24:00,29.5,20.9,30.04,ESE,112,4.5,5.8,70,0.00,CLR,,0.00,WeatherDisplay:10.37,2013-01-27 18:24:00,
2013-01-27 12:29:00,29.5,20.9,30.04,SSE,158,6.9,10.0,70,0.00,CLR,,0.00,WeatherDisplay:10.37,2013-01-27 18:29:00,
2013-01-27 12:34:00,29.3,20.7,30.04,ESE,112,5.9,9.2,70,0.00,CLR,,0.00,WeatherDisplay:10.37,2013-01-27 18:34:00,
2013-01-27 12:39:00,29.3,20.7,30.04,SE,135,4.9,10.0,70,0.00,CLR,,0.00,WeatherDisplay:10.37,2013-01-27 18:39:00,
2013-01-27 12:44:00,29.3,20.7,30.04,ESE,112,4.9,6.9,70,0.00,CLR,,0.00,WeatherDisplay:10.37,2013-01-27 18:44:00,
2013-01-27 12:49:00,29.5,21.2,30.04,SSE,158,3.6,5.8,71,0.00,CLR,,0.00,WeatherDisplay:10.37,2013-01-27 18:49:00,
2013-01-27 12:54:00,29.5,21.6,30.04,ESE,112,5.4,6.2,72,0.00,CLR,,0.00,WeatherDisplay:10.37,2013-01-27 18:54:00,
2013-01-27 12:59:00,29.3,21.4,30.04,SSE,158,4.3,5.8,72,0.00,CLR,,0.00,WeatherDisplay:10.37,2013-01-27 18:59:00,
2013-01-27 13:04:00,29.3,21.7,30.04,ENE,68,4.5,5.8,73,0.00,CLR,,0.00,WeatherDisplay:10.37,2013-01-27 19:04:00,
2013-01-27 13:09:00,29.1,21.9,30.01,SE,135,6.0,8.1,74,0.00,CLR,,0.00,WeatherDisplay:10.37,2013-01-27 19:09:00,
2013-01-27 13:14:00,28.9,22.0,30.01,East,90,4.0,5.8,75,0.00,CLR,,0.00,WeatherDisplay:10.37,2013-01-27 19:14:00,
2013-01-27 13:19:00,28.8,22.5,30.01,SE,135,4.5,5.9,77,0.00,CLR,,0.00,WeatherDisplay:10.37,2013-01-27 19:19:00,
2013-01-27 13:24:00,28.8,22.8,30.01,ESE,112,3.1,9.2,78,0.00,CLR,,0.00,WeatherDisplay:10.37,2013-01-27 19:24:00,
2013-01-27 13:29:00,28.8,22.8,30.01,SE,135,6.2,8.1,78,0.00,CLR,,0.00,WeatherDisplay:10.37,2013-01-27 19:29:00,
2013-01-27 13:34:00,28.8,23.4,30.01,SSE,158,6.4,8.1,80,0.00,CLR,,0.00,WeatherDisplay:10.37,2013-01-27 19:34:00,
2013-01-27 13:39:00,28.4,23.3,30.01,SSE,158,9.8,11.5,81,0.00,CLR,,0.00,WeatherDisplay:10.37,2013-01-27 19:39:00,
2013-01-27 13:44:00,28.4,23.9,30.01,SSE,158,7.1,8.1,83,0.00,CLR,,0.00,WeatherDisplay:10.37,2013-01-27 19:44:00,
2013-01-27 13:49:00,28.2,24.0,30.01,South,180,6.4,10.4,84,0.00,CLR,,0.00,WeatherDisplay:10.37,2013-01-27 19:49:00,
2013-01-27 13:55:00,28.0,24.4,30.01,ESE,112,4.5,8.1,86,0.00,CLR,,0.00,WeatherDisplay:10.37,2013-01-27 19:55:00,
2013-01-27 14:00:00,28.0,24.7,30.01,SE,135,5.4,6.9,87,0.00,CLR,,0.00,WeatherDisplay:10.37,2013-01-27 20:00:00,
2013-01-27 14:05:00,28.0,24.9,30.01,SE,135,4.0,6.4,88,0.00,CLR,,0.00,WeatherDisplay:10.37,2013-01-27 20:05:00,
2013-01-27 14:10:00,28.0,24.9,29.98,ESE,112,6.2,8.1,88,0.00,CLR,,0.00,WeatherDisplay:10.37,2013-01-27 20:10:00,
2013-01-27 14:15:00,28.0,24.9,29.98,SE,135,7.1,10.4,88,0.00,CLR,,0.00,WeatherDisplay:10.37,2013-01-27 20:15:00,
2013-01-27 14:20:00,28.0,24.9,29.98,ESE,112,6.7,10.4,88,0.00,CLR,,0.00,WeatherDisplay:10.37,2013-01-27 20:20:00,
2013-01-27 14:25:00,28.0,25.2,29.95,SE,135,8.1,9.2,89,0.00,CLR,,0.00,WeatherDisplay:10.37,2013-01-27 20:25:00,
2013-01-27 14:30:00,28.4,25.6,29.95,SE,135,5.4,6.9,89,0.00,CLR,,0.00,WeatherDisplay:10.37,2013-01-27 20:30:00,
2013-01-27 14:35:00,28.6,25.8,29.95,SE,135,6.4,11.5,89,0.00,CLR,,0.00,WeatherDisplay:10.37,2013-01-27 20:35:00,
2013-01-27 14:40:00,28.8,25.9,29.95,East,90,7.1,10.4,89,0.00,CLR,,0.00,WeatherDisplay:10.37,2013-01-27 20:40:00,
2013-01-27 14:45:00,28.9,26.1,29.95,East,90,6.0,9.2,89,0.00,CLR,,0.00,WeatherDisplay:10.37,2013-01-27 20:45:00,
2013-01-27 14:50:00,29.1,26.3,29.95,SE,135,6.2,10.4,89,0.00,CLR,,0.00,WeatherDisplay:10.37,2013-01-27 20:50:00,
2013-01-27 14:55:00,29.5,26.6,29.95,SSE,158,4.0,6.4,89,0.00,CLR,,0.00,WeatherDisplay:10.37,2013-01-27 20:55:00,
2013-01-27 15:00:00,29.5,26.6,29.95,SE,135,6.4,9.2,89,0.00,CLR,,0.00,WeatherDisplay:10.37,2013-01-27 21:00:00,
2013-01-27 15:05:00,29.7,26.5,29.95,SE,135,5.4,7.8,88,0.00,CLR,,0.00,WeatherDisplay:10.37,2013-01-27 21:05:00,
2013-01-27 15:10:00,29.8,26.7,29.95,ESE,112,5.6,6.9,88,0.00,CLR,,0.00,WeatherDisplay:10.37,2013-01-27 21:10:00,
2013-01-27 15:15:00,30.0,26.9,29.95,SE,135,6.4,10.4,88,0.00,CLR,,0.00,WeatherDisplay:10.37,2013-01-27 21:15:00,
2013-01-27 15:20:00,30.0,27.2,29.95,SE,135,5.9,8.5,89,0.00,CLR,,0.00,WeatherDisplay:10.37,2013-01-27 21:20:00,
2013-01-27 15:25:00,29.8,27.0,29.95,SE,135,9.8,12.7,89,0.00,CLR,,0.00,WeatherDisplay:10.37,2013-01-27 21:25:00,
2013-01-27 15:30:00,30.0,27.2,29.95,SSE,158,8.1,10.4,89,0.00,CLR,,0.00,WeatherDisplay:10.37,2013-01-27 21:30:00,
2013-01-27 15:35:00,30.0,27.4,29.95,South,180,5.9,9.2,90,0.00,CLR,,0.00,WeatherDisplay:10.37,2013-01-27 21:35:00,
2013-01-27 15:40:00,30.0,27.4,29.92,SSW,202,4.7,8.1,90,0.00,CLR,,0.00,WeatherDisplay:10.37,2013-01-27 21:40:00,
2013-01-27 15:45:00,29.8,27.3,29.92,SSE,158,8.5,13.8,90,0.00,CLR,,0.00,WeatherDisplay:10.37,2013-01-27 21:45:00,
2013-01-27 15:50:00,29.8,27.5,29.92,ESE,112,6.0,9.2,91,0.00,CLR,,0.00,WeatherDisplay:10.37,2013-01-27 21:50:00,
2013-01-27 15:55:00,29.7,27.4,29.92,SE,135,4.9,5.8,91,0.00,CLR,,0.00,WeatherDisplay:10.37,2013-01-27 21:55:00,
2013-01-27 16:00:00,29.7,27.6,29.92,ESE,112,6.4,7.4,92,0.00,CLR,,0.00,WeatherDisplay:10.37,2013-01-27 22:00:00,
2013-01-27 16:05:00,29.7,27.6,29.92,SSE,158,5.9,7.4,92,0.00,CLR,,0.00,WeatherDisplay:10.37,2013-01-27 22:05:00,
2013-01-27 16:10:00,29.8,28.1,29.92,SSE,158,4.7,8.1,93,0.00,CLR,,0.00,WeatherDisplay:10.37,2013-01-27 22:10:00,
2013-01-27 16:15:00,29.8,28.3,29.92,ESE,112,4.7,10.5,94,0.00,CLR,,0.00,WeatherDisplay:10.37,2013-01-27 22:15:00,
2013-01-27 16:20:00,29.8,28.3,29.92,East,90,4.0,5.8,94,0.00,CLR,,0.00,WeatherDisplay:10.37,2013-01-27 22:20:00,
2013-01-27 16:25:00,29.8,28.3,29.92,SSE,158,6.9,10.4,94,0.00,CLR,,0.00,WeatherDisplay:10.37,2013-01-27 22:25:00,
2013-01-27 16:30:00,29.7,28.1,29.92,SSE,158,3.6,6.0,94,0.00,CLR,,0.00,WeatherDisplay:10.37,2013-01-27 22:30:00,
2013-01-27 16:35:00,29.7,28.1,29.92,SSW,202,3.3,12.1,94,0.00,CLR,,0.00,WeatherDisplay:10.37,2013-01-27 22:35:00,
2013-01-27 16:40:00,29.7,28.1,29.92,ESE,112,4.7,5.8,94,0.00,CLR,,0.00,WeatherDisplay:10.37,2013-01-27 22:40:00,
2013-01-27 16:45:00,29.7,28.1,29.92,SSE,158,3.6,4.6,94,0.00,CLR,,0.00,WeatherDisplay:10.37,2013-01-27 22:45:00,
2013-01-27 16:50:00,29.7,28.4,29.92,SSE,158,3.6,4.6,95,0.00,CLR,,0.00,WeatherDisplay:10.37,2013-01-27 22:50:00,
2013-01-27 16:55:00,29.7,28.4,29.89,ESE,112,4.3,5.8,95,0.00,CLR,,0.00,WeatherDisplay:10.37,2013-01-27 22:55:00,
2013-01-27 17:00:00,29.7,28.4,29.89,ESE,112,4.5,4.9,95,0.00,CLR,,0.00,WeatherDisplay:10.37,2013-01-27 23:00:00,
2013-01-27 17:05:00,29.7,28.4,29.89,South,180,5.6,8.1,95,0.00,CLR,,0.00,WeatherDisplay:10.37,2013-01-27 23:05:00,
2013-01-27 17:10:00,29.7,28.4,29.89,East,90,5.9,6.9,95,0.00,CLR,,0.00,WeatherDisplay:10.37,2013-01-27 23:10:00,
2013-01-27 17:15:00,29.8,28.6,29.89,SSE,158,4.9,6.9,95,0.00,CLR,,0.00,WeatherDisplay:10.37,2013-01-27 23:15:00,
2013-01-27 17:20:00,29.8,28.6,29.89,ESE,112,4.7,9.2,95,0.00,CLR,,0.00,WeatherDisplay:10.37,2013-01-27 23:20:00,
2013-01-27 17:25:00,29.8,28.8,29.86,SE,135,2.6,3.5,96,0.00,CLR,,0.00,WeatherDisplay:10.37,2013-01-27 23:25:00,
2013-01-27 17:30:00,30.0,29.0,29.86,SSE,158,3.8,6.0,96,0.00,CLR,,0.00,WeatherDisplay:10.37,2013-01-27 23:30:00,
2013-01-27 17:35:00,30.0,29.3,29.86,SE,135,5.6,9.2,97,0.00,CLR,,0.00,WeatherDisplay:10.37,2013-01-27 23:35:00,
2013-01-27 17:40:00,30.0,29.3,29.89,SSE,158,4.9,6.9,97,0.00,CLR,,0.00,WeatherDisplay:10.37,2013-01-27 23:40:00,
2013-01-27 17:45:00,30.2,29.5,29.89,SSE,158,3.1,5.8,97,0.00,CLR,,0.00,WeatherDisplay:10.37,2013-01-27 23:45:00,
2013-01-27 17:50:00,30.2,29.5,29.89,SSE,158,5.4,5.8,97,0.00,CLR,,0.00,WeatherDisplay:10.37,2013-01-27 23:50:00,
2013-01-27 17:55:00,30.2,29.7,29.89,South,180,5.6,8.1,98,0.00,CLR,,0.00,WeatherDisplay:10.37,2013-01-27 23:55:00,
2013-01-27 18:00:00,30.2,29.7,29.89,SSE,158,5.6,8.5,98,0.00,CLR,,0.00,WeatherDisplay:10.37,2013-01-28 00:00:00,
2013-01-27 18:05:00,30.2,29.5,29.89,SE,135,5.9,7.1,97,0.00,CLR,,0.00,WeatherDisplay:10.37,2013-01-28 00:05:00,
2013-01-27 18:10:00,30.2,29.5,29.89,SE,135,6.4,6.9,97,0.00,CLR,,0.00,WeatherDisplay:10.37,2013-01-28 00:10:00,
2013-01-27 18:15:00,30.2,29.5,29.89,SE,135,3.8,5.6,97,0.00,CLR,,0.00,WeatherDisplay:10.37,2013-01-28 00:15:00,
2013-01-27 18:20:00,30.2,29.5,29.89,SSE,158,4.5,5.8,97,0.00,CLR,,0.00,WeatherDisplay:10.37,2013-01-28 00:20:00,
2013-01-27 18:25:00,30.2,29.5,29.89,SSE,158,5.6,8.1,97,0.00,CLR,,0.00,WeatherDisplay:10.37,2013-01-28 00:25:00,
2013-01-27 18:30:00,30.2,29.5,29.89,SE,135,4.9,5.8,97,0.00,CLR,,0.00,WeatherDisplay:10.37,2013-01-28 00:30:00,
2013-01-27 18:35:00,30.2,29.5,29.89,South,180,4.5,6.9,97,0.00,CLR,,0.00,WeatherDisplay:10.37,2013-01-28 00:35:00,
2013-01-27 18:40:00,30.2,29.5,29.89,SE,135,6.2,7.6,97,0.00,CLR,,0.00,WeatherDisplay:10.37,2013-01-28 00:40:00,
2013-01-27 18:45:00,30.2,29.5,29.89,SE,135,4.5,5.8,97,0.00,CLR,,0.00,WeatherDisplay:10.37,2013-01-28 00:45:00,
2013-01-27 18:50:00,30.2,29.5,29.89,SE,135,4.0,5.8,97,0.00,CLR,,0.00,WeatherDisplay:10.37,2013-01-28 00:50:00,
2013-01-27 18:55:00,30.2,29.7,29.89,SE,135,2.9,3.6,98,0.00,CLR,,0.00,WeatherDisplay:10.37,2013-01-28 00:55:00,
2013-01-27 19:00:00,30.2,29.7,29.89,SE,135,3.3,5.8,98,0.00,CLR,,0.00,WeatherDisplay:10.37,2013-01-28 01:00:00,
2013-01-27 19:05:00,30.2,29.7,29.89,SE,135,3.8,5.8,98,0.00,CLR,,0.00,WeatherDisplay:10.37,2013-01-28 01:05:00,
2013-01-27 19:10:00,30.4,29.9,29.86,ESE,112,2.9,4.3,98,0.00,CLR,,0.00,WeatherDisplay:10.37,2013-01-28 01:10:00,
2013-01-27 19:15:00,30.4,29.9,29.86,SSE,158,4.0,4.9,98,0.00,CLR,,0.00,WeatherDisplay:10.37,2013-01-28 01:15:00,
2013-01-27 19:20:00,30.4,29.9,29.86,SSE,158,3.8,5.8,98,0.00,CLR,,0.00,WeatherDisplay:10.37,2013-01-28 01:20:00,
2013-01-27 19:25:00,30.4,29.9,29.86,SSE,158,4.0,8.1,98,0.00,CLR,,0.00,WeatherDisplay:10.37,2013-01-28 01:25:00,
2013-01-27 19:30:00,30.4,29.9,29.86,SSE,158,3.6,5.8,98,0.00,CLR,,0.00,WeatherDisplay:10.37,2013-01-28 01:30:00,
2013-01-27 19:35:00,30.4,29.9,29.86,South,180,3.8,5.8,98,0.00,CLR,,0.00,WeatherDisplay:10.37,2013-01-28 01:35:00,
2013-01-27 19:40:00,30.4,29.9,29.83,SE,135,5.9,8.1,98,0.00,CLR,,0.00,WeatherDisplay:10.37,2013-01-28 01:40:00,
2013-01-27 19:45:00,30.4,29.9,29.83,South,180,4.0,5.8,98,0.00,CLR,,0.00,WeatherDisplay:10.37,2013-01-28 01:45:00,
2013-01-27 19:50:00,30.4,29.9,29.83,SE,135,3.1,3.5,98,0.00,CLR,,0.00,WeatherDisplay:10.37,2013-01-28 01:50:00,
2013-01-27 19:55:00,30.6,30.1,29.83,SE,135,2.6,3.5,98,0.00,CLR,,0.00,WeatherDisplay:10.37,2013-01-28 01:55:00,
2013-01-27 20:00:00,30.6,30.1,29.83,NNE,22,3.3,3.6,98,0.00,CLR,,0.00,WeatherDisplay:10.37,2013-01-28 02:00:00,
2013-01-27 20:05:00,30.6,30.1,29.83,SE,135,4.0,4.6,98,0.00,CLR,,0.00,WeatherDisplay:10.37,2013-01-28 02:05:00,
2013-01-27 20:10:00,30.6,30.1,29.83,ESE,112,3.8,4.6,98,0.00,CLR,,0.00,WeatherDisplay:10.37,2013-01-28 02:10:00,
2013-01-27 20:15:00,30.7,30.2,29.83,SSE,158,4.0,5.8,98,0.00,CLR,,0.00,WeatherDisplay:10.37,2013-01-28 02:15:00,
2013-01-27 20:20:00,30.7,30.2,29.83,ESE,112,3.6,4.6,98,0.00,CLR,,0.00,WeatherDisplay:10.37,2013-01-28 02:20:00,
2013-01-27 20:25:00,30.7,30.2,29.83,South,180,3.1,5.4,98,0.00,CLR,,0.00,WeatherDisplay:10.37,2013-01-28 02:25:00,
2013-01-27 20:30:00,30.7,30.2,29.83,ESE,112,3.3,4.6,98,0.00,CLR,,0.00,WeatherDisplay:10.37,2013-01-28 02:30:00,
2013-01-27 20:35:00,30.9,30.4,29.83,SE,135,3.3,5.4,98,0.00,CLR,,0.00,WeatherDisplay:10.37,2013-01-28 02:35:00,
2013-01-27 20:40:00,30.9,30.4,29.83,East,90,2.2,3.3,98,0.00,CLR,,0.00,WeatherDisplay:10.37,2013-01-28 02:40:00,
2013-01-27 20:45:00,30.9,30.4,29.83,SE,135,2.4,3.5,98,0.00,CLR,,0.00,WeatherDisplay:10.37,2013-01-28 02:45:00,
2013-01-27 20:50:00,30.9,30.4,29.83,SE,135,2.6,3.5,98,0.00,CLR,,0.00,WeatherDisplay:10.37,2013-01-28 02:50:00,
2013-01-27 20:55:00,31.1,30.6,29.83,ESE,112,1.1,2.3,98,0.00,CLR,,0.00,WeatherDisplay:10.37,2013-01-28 02:55:00,
2013-01-27 21:00:00,31.1,30.6,29.83,ESE,112,2.6,2.6,98,0.00,CLR,,0.00,WeatherDisplay:10.37,2013-01-28 03:00:00,
2013-01-27 21:05:00,31.1,30.6,29.83,SE,135,3.3,4.0,98,0.00,CLR,,0.00,WeatherDisplay:10.37,2013-01-28 03:05:00,
2013-01-27 21:10:00,31.1,30.6,29.83,SSE,158,4.0,5.8,98,0.00,CLR,,0.00,WeatherDisplay:10.37,2013-01-28 03:10:00,
2013-01-27 21:15:00,31.1,30.6,29.83,ESE,112,2.2,3.1,98,0.00,CLR,,0.00,WeatherDisplay:10.37,2013-01-28 03:15:00,
2013-01-27 21:20:00,31.1,30.6,29.83,SSE,158,3.3,4.6,98,0.00,CLR,,0.00,WeatherDisplay:10.37,2013-01-28 03:20:00,
2013-01-27 21:25:00,31.3,30.8,29.83,SSE,158,3.8,3.8,98,0.00,CLR,,0.00,WeatherDisplay:10.37,2013-01-28 03:25:00,
2013-01-27 21:30:00,31.3,30.8,29.83,SSE,158,3.8,4.6,98,0.00,CLR,,0.00,WeatherDisplay:10.37,2013-01-28 03:30:00,
2013-01-27 21:35:00,31.3,30.8,29.83,SE,135,2.9,3.5,98,0.00,CLR,,0.00,WeatherDisplay:10.37,2013-01-28 03:35:00,
2013-01-27 21:40:00,31.5,31.0,29.80,SSE,158,4.3,5.4,98,0.00,CLR,,0.00,WeatherDisplay:10.37,2013-01-28 03:40:00,
2013-01-27 21:45:00,31.5,31.0,29.80,SSE,158,3.1,4.6,98,0.00,CLR,,0.00,WeatherDisplay:10.37,2013-01-28 03:45:00,
2013-01-27 21:50:00,31.5,31.0,29.80,SSE,158,2.6,3.5,98,0.00,CLR,,0.00,WeatherDisplay:10.37,2013-01-28 03:50:00,
2013-01-27 21:55:00,31.5,31.0,29.80,SSE,158,3.3,6.9,98,0.00,CLR,,0.00,WeatherDisplay:10.37,2013-01-28 03:55:00,
2013-01-27 22:00:00,31.5,31.0,29.80,ESE,112,3.6,4.6,98,0.00,CLR,,0.00,WeatherDisplay:10.37,2013-01-28 04:00:00,
2013-01-27 22:05:00,31.5,31.0,29.80,SSE,158,3.6,4.6,98,0.00,CLR,,0.00,WeatherDisplay:10.37,2013-01-28 04:05:00,
2013-01-27 22:10:00,31.6,31.1,29.80,SSE,158,3.6,4.6,98,0.00,CLR,,0.00,WeatherDisplay:10.37,2013-01-28 04:10:00,
2013-01-27 22:15:00,31.6,31.1,29.80,South,180,3.8,5.8,98,0.00,CLR,,0.00,WeatherDisplay:10.37,2013-01-28 04:15:00,
2013-01-27 22:20:00,31.6,31.1,29.80,SSE,158,3.1,4.0,98,0.00,CLR,,0.00,WeatherDisplay:10.37,2013-01-28 04:20:00,
2013-01-27 22:25:00,31.6,31.1,29.80,SSE,158,3.1,4.6,98,0.00,CLR,,0.00,WeatherDisplay:10.37,2013-01-28 04:25:00,
2013-01-27 22:31:00,31.6,31.1,29.80,SSE,158,3.3,4.6,98,0.00,CLR,,0.00,WeatherDisplay:10.37,2013-01-28 04:31:00,
2013-01-27 22:36:00,31.8,31.3,29.80,SSE,158,3.8,3.8,98,0.00,CLR,,0.00,WeatherDisplay:10.37,2013-01-28 04:36:00,
2013-01-27 22:41:00,31.8,31.3,29.80,South,180,3.8,5.8,98,0.00,CLR,,0.00,WeatherDisplay:10.37,2013-01-28 04:41:00,
2013-01-27 22:46:00,31.8,31.3,29.80,SSE,158,3.1,4.6,98,0.00,CLR,,0.00,WeatherDisplay:10.37,2013-01-28 04:46:00,
2013-01-27 22:51:00,31.8,31.3,29.80,SSE,158,3.6,4.9,98,0.00,CLR,,0.00,WeatherDisplay:10.37,2013-01-28 04:51:00,
2013-01-27 22:56:00,31.8,31.3,29.80,ESE,112,3.1,4.6,98,0.00,CLR,,0.00,WeatherDisplay:10.37,2013-01-28 04:56:00,
2013-01-27 23:00:00,31.8,31.3,29.80,South,180,4.3,4.7,98,0.00,CLR,,0.00,WeatherDisplay:10.37,2013-01-28 05:00:00,
2013-01-27 23:01:00,31.8,31.3,29.80,SSE,158,3.1,4.6,98,0.00,CLR,,0.00,WeatherDisplay:10.37,2013-01-28 05:01:00,
2013-01-27 23:03:00,31.8,31.3,29.80,SSE,158,2.6,3.5,98,0.00,CLR,,0.00,WeatherDisplay:10.37,2013-01-28 05:03:00,
2013-01-27 23:04:00,31.8,31.3,29.80,SE,135,2.6,3.5,98,0.00,CLR,,0.00,WeatherDisplay:10.37,2013-01-28 05:04:00,
2013-01-27 23:09:00,31.8,31.3,29.80,ESE,112,2.2,3.5,98,0.00,CLR,,0.00,WeatherDisplay:10.37,2013-01-28 05:09:00,
2013-01-27 23:14:00,31.8,31.3,29.80,South,180,2.4,2.4,98,0.00,CLR,,0.00,WeatherDisplay:10.37,2013-01-28 05:14:00,
2013-01-27 23:19:00,31.8,31.3,29.80,ESE,112,2.4,2.4,98,0.00,CLR,,0.00,WeatherDisplay:10.37,2013-01-28 05:19:00,
2013-01-27 23:24:00,31.8,31.3,29.80,SSE,158,2.0,2.6,98,0.00,CLR,,0.00,WeatherDisplay:10.37,2013-01-28 05:24:00,
2013-01-27 23:29:00,31.8,31.3,29.77,SE,135,1.6,2.4,98,0.00,CLR,,0.00,WeatherDisplay:10.37,2013-01-28 05:29:00,
2013-01-27 23:34:00,31.8,31.3,29.77,ESE,112,1.1,2.3,98,0.00,CLR,,0.00,WeatherDisplay:10.37,2013-01-28 05:34:00,
2013-01-27 23:39:00,31.8,31.3,29.77,SSE,158,2.2,2.4,98,0.00,CLR,,0.00,WeatherDisplay:10.37,2013-01-28 05:39:00,
2013-01-27 23:44:00,31.8,31.3,29.80,SSE,158,1.4,1.4,98,0.00,CLR,,0.00,WeatherDisplay:10.37,2013-01-28 05:44:00,
2013-01-27 23:49:00,32.0,31.5,29.80,SE,135,0.0,3.5,98,0.00,CLR,,0.00,WeatherDisplay:10.37,2013-01-28 05:49:00,
2013-01-27 23:54:00,32.0,31.5,29.80,ESE,112,1.6,1.6,98,0.00,CLR,,0.00,WeatherDisplay:10.37,2013-01-28 05:54:00,
2013-01-27 23:59:00,32.0,31.5,29.80,SE,135,2.0,2.3,98,0.00,CLR,,0.00,WeatherDisplay:10.37,2013-01-28 05:59:00,